createdAt,value
2022-09-25T00:04:00.084Z,100787.22
2022-09-25T00:09:24.452Z,100784.74
2022-09-25T00:14:46.605Z,100789.87
2022-09-25T00:20:10.068Z,100781.20
2022-09-25T00:25:33.605Z,100785.05
2022-09-25T00:30:57.373Z,100776.69
2022-09-25T00:36:22.848Z,100776.69
2022-09-25T00:41:45.863Z,100766.81
2022-09-25T00:47:08.079Z,100765.87
2022-09-25T00:52:32.033Z,100764.36
2022-09-25T00:57:58.389Z,100762.64
2022-09-25T01:03:21.387Z,100758.13
2022-09-25T01:08:45.763Z,100751.80
2022-09-25T01:14:10.994Z,100754.59
2022-09-25T01:19:58.797Z,100753.86
2022-09-25T01:25:42.986Z,100752.26
2022-09-25T01:31:12.846Z,100749.37
2022-09-25T01:36:45.602Z,100742.48
2022-09-25T01:42:22.614Z,100743.45
2022-09-25T01:47:49.537Z,100748.17
2022-09-25T01:53:16.135Z,100744.41
2022-09-25T01:58:48.495Z,100746.13
2022-09-25T02:04:33.540Z,100742.14
2022-09-25T02:10:00.175Z,100742.59
2022-09-25T02:15:27.308Z,100742.70
2022-09-25T02:20:56.623Z,100737.08
2022-09-25T02:26:23.654Z,100737.12
2022-09-25T02:32:05.031Z,100734.54
2022-09-25T02:37:31.908Z,100730.83
2022-09-25T02:43:13.888Z,100734.33
2022-09-25T02:48:58.396Z,100729.58
2022-09-25T02:54:39.747Z,100739.74
2022-09-25T03:00:10.744Z,100732.67
2022-09-25T03:05:36.287Z,100732.42
2022-09-25T03:10:59.621Z,100733.77
2022-09-25T03:16:30.765Z,100724.20
2022-09-25T03:21:54.433Z,100723.39
2022-09-25T03:27:16.601Z,100721.30
2022-09-25T03:32:39.424Z,100719.75
2022-09-25T03:38:01.580Z,100719.78
2022-09-25T03:43:24.353Z,100720.56
2022-09-25T03:48:47.240Z,100717.40
2022-09-25T03:54:09.967Z,100721.40
2022-09-25T03:59:32.167Z,100728.00
2022-09-25T04:04:55.525Z,100724.27
2022-09-25T04:10:17.843Z,100727.41
2022-09-25T04:15:43.302Z,100729.58
2022-09-25T04:21:05.917Z,100726.41
2022-09-25T04:26:28.745Z,100729.17
2022-09-25T04:31:52.984Z,100727.65
2022-09-25T04:37:16.114Z,100731.27
2022-09-25T04:42:38.572Z,100719.23
2022-09-25T04:48:01.283Z,100720.38
2022-09-25T04:53:24.129Z,100727.50
2022-09-25T04:58:49.222Z,100719.14
2022-09-25T05:04:12.031Z,100716.97
2022-09-25T05:09:35.259Z,100713.84
2022-09-25T05:14:57.398Z,100727.77
2022-09-25T05:20:20.169Z,100724.27
2022-09-25T05:25:44.058Z,100721.98
2022-09-25T05:31:07.924Z,100723.80
2022-09-25T05:36:31.225Z,100722.53
2022-09-25T05:41:53.401Z,100716.96
2022-09-25T05:47:16.182Z,100720.33
2022-09-25T05:52:38.738Z,100726.09
2022-09-25T05:58:00.883Z,100725.72
2022-09-25T06:03:23.604Z,100725.45
2022-09-25T06:08:46.711Z,100727.11
2022-09-25T06:14:08.888Z,100726.92
2022-09-25T06:19:31.413Z,100733.91
2022-09-25T06:24:53.665Z,100731.89
2022-09-25T06:30:16.285Z,100734.98
2022-09-25T06:35:39.279Z,100731.86
2022-09-25T06:41:01.999Z,100735.36
2022-09-25T06:46:24.782Z,100723.84
2022-09-25T06:51:48.218Z,100729.28
2022-09-25T06:57:11.563Z,100716.09
2022-09-25T07:02:51.561Z,100726.06
2022-09-25T07:08:14.891Z,100726.06
2022-09-25T07:13:41.181Z,100715.66
2022-09-25T07:19:06.183Z,100710.72
2022-09-25T07:24:29.971Z,100716.52
2022-09-25T07:29:52.177Z,100722.18
2022-09-25T07:35:14.800Z,100720.75
2022-09-25T07:40:38.369Z,100722.12
2022-09-25T07:46:15.845Z,100723.69
2022-09-25T07:51:39.049Z,100718.68
2022-09-25T07:57:01.759Z,100724.16
2022-09-25T08:02:23.994Z,100715.56
2022-09-25T08:07:49.529Z,100713.12
2022-09-25T08:13:12.111Z,100723.28
2022-09-25T08:18:34.343Z,100717.94
2022-09-25T08:23:58.246Z,100717.31
2022-09-25T08:29:20.420Z,100714.76
2022-09-25T08:34:43.219Z,100707.97
2022-09-25T08:40:09.728Z,100710.12
2022-09-25T08:46:04.954Z,100705.91
2022-09-25T08:51:27.853Z,100696.47
2022-09-25T08:56:51.394Z,100701.59
2022-09-25T09:02:30.724Z,100694.83
2022-09-25T09:08:10.449Z,100685.71
2022-09-25T09:14:05.064Z,100679.44
2022-09-25T09:19:28.952Z,100683.08
2022-09-25T09:24:56.390Z,100676.39
2022-09-25T09:30:52.317Z,100674.44
2022-09-25T09:36:51.350Z,100667.83
2022-09-25T09:42:33.464Z,100656.53
2022-09-25T09:48:12.440Z,100658.10
2022-09-25T09:53:57.299Z,100652.34
2022-09-25T09:59:33.601Z,100648.48
2022-09-25T10:04:58.458Z,100641.06
2022-09-25T10:10:26.306Z,100643.17
2022-09-25T10:16:05.383Z,100643.65
2022-09-25T10:21:41.469Z,100639.88
2022-09-25T10:27:03.727Z,100631.00
2022-09-25T10:32:28.130Z,100629.14
2022-09-25T10:37:52.661Z,100626.36
2022-09-25T10:43:27.724Z,100614.25
2022-09-25T10:49:10.382Z,100615.38
2022-09-25T10:54:36.850Z,100608.78
2022-09-25T11:00:00.974Z,100604.17
2022-09-25T11:05:30.298Z,100595.96
2022-09-25T11:11:06.103Z,100602.03
2022-09-25T11:16:30.104Z,100595.31
2022-09-25T11:21:58.901Z,100593.31
2022-09-25T11:27:35.005Z,100583.89
2022-09-25T11:33:32.927Z,100579.08
2022-09-25T11:39:30.021Z,100578.69
2022-09-25T11:45:23.811Z,100578.53
2022-09-25T11:50:54.277Z,100570.55
2022-09-25T11:56:40.689Z,100565.34
2022-09-25T12:02:36.734Z,100558.46
2022-09-25T12:08:20.293Z,100557.98
2022-09-25T12:14:18.793Z,100549.70
2022-09-25T12:19:52.475Z,100552.67
2022-09-25T12:25:56.459Z,100542.55
2022-09-25T12:31:43.785Z,100534.73
2022-09-25T12:37:18.615Z,100523.08
2022-09-25T12:42:55.104Z,100520.95
2022-09-25T12:48:51.004Z,100514.59
2022-09-25T12:54:30.277Z,100515.53
2022-09-25T13:00:03.673Z,100504.41
2022-09-25T13:05:44.792Z,100498.47
2022-09-25T13:11:12.212Z,100497.34
2022-09-25T13:16:35.758Z,100497.48
2022-09-25T13:22:11.491Z,100492.25
2022-09-25T13:27:38.750Z,100485.34
2022-09-25T13:33:05.249Z,100481.53
2022-09-25T13:38:50.321Z,100466.31
2022-09-25T13:50:27.800Z,100473.03
2022-09-25T13:55:58.510Z,100487.22
2022-09-25T14:01:25.332Z,100469.57
2022-09-25T14:06:57.310Z,100477.41
2022-09-25T14:12:41.584Z,100470.57
2022-09-25T14:18:06.574Z,100471.70
2022-09-25T14:23:35.798Z,100465.70
2022-09-25T14:29:06.628Z,100462.17
2022-09-25T14:34:55.981Z,100456.06
2022-09-25T14:40:31.074Z,100458.38
2022-09-25T14:46:21.422Z,100447.87
2022-09-25T14:51:50.671Z,100435.61
2022-09-25T14:57:16.353Z,100433.23
2022-09-25T15:02:45.646Z,100436.52
2022-09-25T15:08:12.264Z,100426.15
2022-09-25T15:13:36.252Z,100420.92
2022-09-25T15:19:02.567Z,100422.04
2022-09-25T15:24:31.709Z,100416.14
2022-09-25T15:29:57.040Z,100416.81
2022-09-25T15:35:37.689Z,100412.22
2022-09-25T15:41:02.432Z,100410.52
2022-09-25T15:46:43.946Z,100407.63
2022-09-25T15:52:14.028Z,100409.59
2022-09-25T15:57:39.456Z,100419.72
2022-09-25T16:03:39.926Z,100414.53
2022-09-25T16:09:16.576Z,100408.62
2022-09-25T16:14:46.711Z,100402.98
2022-09-25T16:20:29.192Z,100401.84
2022-09-25T16:25:59.180Z,100400.86
2022-09-25T16:31:33.513Z,100395.16
2022-09-25T16:36:58.546Z,100389.88
2022-09-25T16:42:38.778Z,100383.37
2022-09-25T16:47:57.048Z,100389.97
2022-09-25T16:53:19.399Z,100383.89
2022-09-25T16:58:42.976Z,100395.16
2022-09-25T17:04:07.303Z,100394.92
2022-09-25T17:09:31.693Z,100385.14
2022-09-25T17:14:55.435Z,100380.23
2022-09-25T17:20:18.812Z,100363.44
2022-09-25T17:25:48.826Z,100365.30
2022-09-25T17:31:11.371Z,100358.74
2022-09-25T17:36:33.703Z,100355.91
2022-09-25T17:41:57.314Z,100362.78
2022-09-25T17:47:21.981Z,100371.20
2022-09-25T17:52:44.415Z,100370.11
2022-09-25T17:58:06.834Z,100358.88
2022-09-25T18:03:31.462Z,100363.64
2022-09-25T18:08:55.955Z,100361.88
2022-09-25T18:14:19.011Z,100357.14
2022-09-25T18:19:59.640Z,100353.67
2022-09-25T18:25:23.475Z,100352.87
2022-09-25T18:30:45.643Z,100342.09
2022-09-25T18:36:08.397Z,100351.02
2022-09-25T18:41:31.240Z,100334.86
2022-09-25T18:46:54.890Z,100338.79
2022-09-25T18:52:17.721Z,100339.06
2022-09-25T18:57:40.780Z,100342.11
2022-09-25T19:03:06.393Z,100341.81
2022-09-25T19:08:30.386Z,100347.83
2022-09-25T19:13:54.331Z,100344.88
2022-09-25T19:19:16.589Z,100346.70
2022-09-25T19:24:42.339Z,100333.78
2022-09-25T19:30:04.675Z,100328.43
2022-09-25T19:35:27.004Z,100330.88
2022-09-25T19:40:50.798Z,100326.18
2022-09-25T19:46:15.075Z,100318.92
2022-09-25T19:51:39.410Z,100327.05
2022-09-25T19:57:02.536Z,100320.65
2022-09-25T20:02:25.773Z,100321.59
2022-09-25T20:07:47.980Z,100322.97
2022-09-25T20:13:10.618Z,100315.92
2022-09-25T20:18:33.758Z,100310.80
2022-09-25T20:23:58.413Z,100316.89
2022-09-25T20:29:24.185Z,100325.65
2022-09-25T20:34:47.552Z,100330.36
2022-09-25T20:40:09.877Z,100326.41
2022-09-25T20:45:32.174Z,100326.28
2022-09-25T20:50:56.830Z,100322.53
2022-09-25T20:56:24.508Z,100313.31
2022-09-25T21:01:50.067Z,100305.97
2022-09-25T21:07:16.709Z,100299.95
2022-09-25T21:12:36.623Z,100301.75
2022-09-25T21:18:00.257Z,100300.64
2022-09-25T21:23:22.411Z,100295.69
2022-09-25T21:28:45.696Z,100293.78
2022-09-25T21:34:10.984Z,100285.63
2022-09-25T21:39:33.137Z,100281.06
2022-09-25T21:44:55.711Z,100263.04
2022-09-25T21:50:18.512Z,100259.66
2022-09-25T21:55:41.338Z,100250.52
2022-09-25T22:01:10.585Z,100246.64
2022-09-25T22:06:37.880Z,100236.66
2022-09-25T22:12:01.682Z,100245.03
2022-09-25T22:17:23.837Z,100234.44
2022-09-25T22:22:46.432Z,100229.07
2022-09-25T22:28:08.568Z,100232.27
2022-09-25T22:33:30.714Z,100213.13
2022-09-25T22:38:53.588Z,100219.09
2022-09-25T22:44:15.764Z,100204.97
2022-09-25T22:49:38.169Z,100200.70
2022-09-25T22:55:00.323Z,100187.05
2022-09-25T23:00:23.430Z,100188.75
2022-09-25T23:05:47.278Z,100181.56
2022-09-25T23:11:11.337Z,100177.81
2022-09-25T23:16:34.153Z,100182.06
2022-09-25T23:21:59.495Z,100172.31
2022-09-25T23:27:21.683Z,100170.97
2022-09-25T23:32:44.290Z,100167.69
2022-09-25T23:38:09.006Z,100166.95
2022-09-25T23:43:31.493Z,100166.95
2022-09-25T23:48:54.582Z,100163.64
2022-09-25T23:54:18.662Z,100149.77
2022-09-25T23:59:40.881Z,100151.94
